SKSP/ADZ METAR and TAF weather

Enter ICAO airport designator
Station Type Date Time Source
SKSP METAR 2020/07/06 07:00 UTC NOAA

SKSP 060700Z 07010KT 040V100 9999 FEW016 SCT200 28/24 A2989


Station Type Date Time Source
SKSP Decoded METAR 2020/07/06 07:00 UTC NOAA

San Andres Isla / Sesquicentenario, Colombia (SKSP) 12-35N 081-43W 6M
Jul 06, 2020 - 03:00 AM EDT / 2020.07.06 0700 UTC
Wind: from the ENE (070 degrees) at 12 MPH (10 KT) (direction variable):0
Visibility: greater than 7 mile(s):0
Sky conditions: partly cloudy
Temperature: 82 F (28 C)
Dew Point: 75 F (24 C)
Relative Humidity: 78%
Pressure (altimeter): 29.89 in. Hg (1012 hPa)
ob: SKSP 060700Z 07010KT 040V100 9999 FEW016 SCT200 28/24 A2989
cycle: 7

Station Type Date Time Source
SKSP TAF 2020/07/06 06:41 UTC NOAA

TAF SKSP 060430Z 0606/0706 08014KT 9999 FEW017 BKN100 PROB40
TEMPO 0609/0612 8000 RA SCT015 BKN080
TEMPO 0615/0619 DZ SCT015TCU TX31/0619Z TN27/0610Z

Example: see airport list